sensor_id;sensor_type;location;lat;lon;timestamp;pressure;altitude;pressure_sealevel;temperature;humidity
35435;BME280;21556;55.782;37.528;2023-02-19T00:01:20;98217.91;;;-5.60;100.00
35435;BME280;21556;55.782;37.528;2023-02-19T00:03:51;98221.19;;;-5.93;100.00
35435;BME280;21556;55.782;37.528;2023-02-19T00:06:18;98213.03;;;-5.86;100.00
35435;BME280;21556;55.782;37.528;2023-02-19T00:08:44;98220.69;;;-5.86;100.00
35435;BME280;21556;55.782;37.528;2023-02-19T00:11:12;98219.56;;;-5.76;100.00
35435;BME280;21556;55.782;37.528;2023-02-19T00:13:44;98210.72;;;-5.98;100.00
35435;BME280;21556;55.782;37.528;2023-02-19T00:16:20;98203.94;;;-5.66;100.00
35435;BME280;21556;55.782;37.528;2023-02-19T00:18:47;98204.66;;;-5.69;100.00
35435;BME280;21556;55.782;37.528;2023-02-19T00:21:14;98195.91;;;-5.58;100.00
35435;BME280;21556;55.782;37.528;2023-02-19T00:23:40;98198.00;;;-5.96;100.00
35435;BME280;21556;55.782;37.528;2023-02-19T00:26:11;98196.13;;;-5.84;100.00
35435;BME280;21556;55.782;37.528;2023-02-19T00:28:39;98197.09;;;-5.82;100.00
35435;BME280;21556;55.782;37.528;2023-02-19T00:31:17;98184.84;;;-5.73;100.00
35435;BME280;21556;55.782;37.528;2023-02-19T00:33:44;98190.28;;;-5.67;100.00
35435;BME280;21556;55.782;37.528;2023-02-19T00:36:10;98189.94;;;-5.73;100.00
35435;BME280;21556;55.782;37.528;2023-02-19T00:38:38;98196.63;;;-5.75;100.00
35435;BME280;21556;55.782;37.528;2023-02-19T00:41:04;98197.63;;;-5.73;100.00
35435;BME280;21556;55.782;37.528;2023-02-19T00:43:49;98191.34;;;-5.94;100.00
35435;BME280;21556;55.782;37.528;2023-02-19T00:48:52;98176.16;;;-5.60;100.00
35435;BME280;21556;55.782;37.528;2023-02-19T00:51:19;98163.38;;;-5.60;100.00
35435;BME280;21556;55.782;37.528;2023-02-19T00:53:45;98172.34;;;-5.83;100.00
35435;BME280;21556;55.782;37.528;2023-02-19T00:56:12;98177.75;;;-5.93;100.00
35435;BME280;21556;55.782;37.528;2023-02-19T00:58:38;98168.25;;;-6.11;100.00
35435;BME280;21556;55.782;37.528;2023-02-19T01:01:04;98170.91;;;-5.78;100.00
35435;BME280;21556;55.782;37.528;2023-02-19T01:03:32;98141.66;;;-5.68;100.00
35435;BME280;21556;55.782;37.528;2023-02-19T01:05:58;98143.19;;;-5.87;100.00
35435;BME280;21556;55.782;37.528;2023-02-19T01:08:24;98153.66;;;-5.82;100.00
35435;BME280;21556;55.782;37.528;2023-02-19T01:10:50;98138.06;;;-5.72;100.00
35435;BME280;21556;55.782;37.528;2023-02-19T01:13:16;98142.88;;;-5.93;100.00
35435;BME280;21556;55.782;37.528;2023-02-19T01:15:43;98134.38;;;-6.23;100.00
35435;BME280;21556;55.782;37.528;2023-02-19T01:18:10;98138.94;;;-6.17;100.00
35435;BME280;21556;55.782;37.528;2023-02-19T01:20:43;98136.97;;;-5.92;100.00
35435;BME280;21556;55.782;37.528;2023-02-19T01:23:11;98132.25;;;-5.69;100.00
35435;BME280;21556;55.782;37.528;2023-02-19T01:25:39;98136.72;;;-5.65;100.00
35435;BME280;21556;55.782;37.528;2023-02-19T01:28:05;98134.34;;;-5.93;100.00
35435;BME280;21556;55.782;37.528;2023-02-19T01:30:36;98123.88;;;-5.82;100.00
35435;BME280;21556;55.782;37.528;2023-02-19T01:33:04;98127.13;;;-5.69;100.00
35435;BME280;21556;55.782;37.528;2023-02-19T01:35:30;98127.97;;;-6.16;100.00
35435;BME280;21556;55.782;37.528;2023-02-19T01:37:56;98133.41;;;-6.25;100.00
35435;BME280;21556;55.782;37.528;2023-02-19T01:40:22;98126.97;;;-6.03;100.00
35435;BME280;21556;55.782;37.528;2023-02-19T01:42:48;98116.53;;;-5.92;100.00
35435;BME280;21556;55.782;37.528;2023-02-19T01:50:29;98105.94;;;-6.14;100.00
35435;BME280;21556;55.782;37.528;2023-02-19T01:52:58;98112.25;;;-6.08;100.00
35435;BME280;21556;55.782;37.528;2023-02-19T01:55:32;98123.63;;;-6.17;100.00
35435;BME280;21556;55.782;37.528;2023-02-19T01:58:00;98122.31;;;-6.11;100.00
35435;BME280;21556;55.782;37.528;2023-02-19T02:00:27;98119.47;;;-6.00;100.00
35435;BME280;21556;55.782;37.528;2023-02-19T02:02:55;98122.59;;;-6.06;100.00
35435;BME280;21556;55.782;37.528;2023-02-19T02:05:31;98119.09;;;-5.92;100.00
35435;BME280;21556;55.782;37.528;2023-02-19T02:08:01;98116.91;;;-6.00;100.00
35435;BME280;21556;55.782;37.528;2023-02-19T02:10:47;98113.41;;;-6.17;100.00
35435;BME280;21556;55.782;37.528;2023-02-19T02:13:13;98121.19;;;-6.16;100.00
35435;BME280;21556;55.782;37.528;2023-02-19T02:24:52;98137.47;;;-6.43;100.00
35435;BME280;21556;55.782;37.528;2023-02-19T02:30:40;98123.13;;;-6.26;100.00
35435;BME280;21556;55.782;37.528;2023-02-19T02:33:51;98112.22;;;-6.39;100.00
35435;BME280;21556;55.782;37.528;2023-02-19T02:36:04;98113.78;;;-6.26;100.00
35435;BME280;21556;55.782;37.528;2023-02-19T02:38:36;98103.69;;;-6.24;100.00
35435;BME280;21556;55.782;37.528;2023-02-19T02:41:04;98102.00;;;-6.24;100.00
35435;BME280;21556;55.782;37.528;2023-02-19T02:43:31;98106.81;;;-6.14;100.00
35435;BME280;21556;55.782;37.528;2023-02-19T02:45:57;98097.88;;;-6.37;100.00
35435;BME280;21556;55.782;37.528;2023-02-19T02:48:47;98108.84;;;-6.08;100.00
35435;BME280;21556;55.782;37.528;2023-02-19T02:51:40;98105.63;;;-6.35;100.00
35435;BME280;21556;55.782;37.528;2023-02-19T02:54:21;98100.50;;;-6.20;100.00
35435;BME280;21556;55.782;37.528;2023-02-19T02:57:11;98091.34;;;-6.17;100.00
35435;BME280;21556;55.782;37.528;2023-02-19T02:59:44;98083.56;;;-6.03;100.00
35435;BME280;21556;55.782;37.528;2023-02-19T03:02:21;98094.94;;;-6.13;100.00
35435;BME280;21556;55.782;37.528;2023-02-19T03:07:55;98088.34;;;-6.10;100.00
35435;BME280;21556;55.782;37.528;2023-02-19T03:12:57;98092.69;;;-6.38;100.00
35435;BME280;21556;55.782;37.528;2023-02-19T03:15:50;98095.84;;;-6.27;100.00
35435;BME280;21556;55.782;37.528;2023-02-19T03:18:39;98091.44;;;-6.30;100.00
35435;BME280;21556;55.782;37.528;2023-02-19T03:21:27;98084.16;;;-6.39;100.00
35435;BME280;21556;55.782;37.528;2023-02-19T03:23:55;98079.03;;;-6.24;100.00
35435;BME280;21556;55.782;37.528;2023-02-19T03:26:40;98095.28;;;-6.22;100.00
35435;BME280;21556;55.782;37.528;2023-02-19T03:29:09;98079.34;;;-6.18;100.00
35435;BME280;21556;55.782;37.528;2023-02-19T03:31:56;98071.25;;;-6.11;100.00
35435;BME280;21556;55.782;37.528;2023-02-19T03:34:51;98073.03;;;-6.39;100.00
35435;BME280;21556;55.782;37.528;2023-02-19T03:37:31;98077.81;;;-6.45;100.00
35435;BME280;21556;55.782;37.528;2023-02-19T03:39:59;98069.00;;;-6.36;100.00
35435;BME280;21556;55.782;37.528;2023-02-19T03:48:06;98061.06;;;-6.25;100.00
35435;BME280;21556;55.782;37.528;2023-02-19T03:50:57;98059.25;;;-6.58;100.00
35435;BME280;21556;55.782;37.528;2023-02-19T03:53:48;98062.34;;;-6.48;100.00
35435;BME280;21556;55.782;37.528;2023-02-19T03:56:40;98059.16;;;-6.44;100.00
35435;BME280;21556;55.782;37.528;2023-02-19T03:59:33;98057.22;;;-6.34;100.00
35435;BME280;21556;55.782;37.528;2023-02-19T04:02:13;98054.28;;;-6.25;100.00
35435;BME280;21556;55.782;37.528;2023-02-19T04:04:50;98061.19;;;-6.08;100.00
35435;BME280;21556;55.782;37.528;2023-02-19T04:07:20;98055.69;;;-6.15;100.00
35435;BME280;21556;55.782;37.528;2023-02-19T04:09:48;98059.09;;;-6.15;100.00
35435;BME280;21556;55.782;37.528;2023-02-19T04:12:19;98055.22;;;-6.08;100.00
35435;BME280;21556;55.782;37.528;2023-02-19T04:14:51;98060.78;;;-6.15;100.00
35435;BME280;21556;55.782;37.528;2023-02-19T04:17:36;98053.97;;;-6.31;100.00
35435;BME280;21556;55.782;37.528;2023-02-19T04:20:07;98043.19;;;-6.25;100.00
35435;BME280;21556;55.782;37.528;2023-02-19T04:22:36;98041.38;;;-6.28;100.00
35435;BME280;21556;55.782;37.528;2023-02-19T04:25:03;98049.72;;;-5.99;100.00
35435;BME280;21556;55.782;37.528;2023-02-19T04:27:29;98038.22;;;-6.08;100.00
35435;BME280;21556;55.782;37.528;2023-02-19T04:29:55;98039.94;;;-6.23;100.00
35435;BME280;21556;55.782;37.528;2023-02-19T04:32:21;98047.84;;;-6.18;100.00
35435;BME280;21556;55.782;37.528;2023-02-19T04:34:47;98045.28;;;-6.18;100.00
35435;BME280;21556;55.782;37.528;2023-02-19T04:37:13;98038.03;;;-6.27;100.00
35435;BME280;21556;55.782;37.528;2023-02-19T04:39:39;98050.97;;;-6.24;100.00
35435;BME280;21556;55.782;37.528;2023-02-19T04:42:04;98038.50;;;-6.18;100.00
35435;BME280;21556;55.782;37.528;2023-02-19T04:44:32;98026.34;;;-6.07;100.00
35435;BME280;21556;55.782;37.528;2023-02-19T04:46:57;98040.03;;;-6.36;100.00
35435;BME280;21556;55.782;37.528;2023-02-19T04:49:23;98037.38;;;-5.92;100.00
35435;BME280;21556;55.782;37.528;2023-02-19T04:51:49;98032.78;;;-6.14;100.00
35435;BME280;21556;55.782;37.528;2023-02-19T04:54:15;98036.81;;;-6.02;100.00
35435;BME280;21556;55.782;37.528;2023-02-19T04:56:41;98045.91;;;-5.91;100.00
35435;BME280;21556;55.782;37.528;2023-02-19T04:59:07;98045.44;;;-6.61;100.00
35435;BME280;21556;55.782;37.528;2023-02-19T05:01:32;98030.44;;;-6.25;100.00
35435;BME280;21556;55.782;37.528;2023-02-19T05:03:58;98027.22;;;-5.90;100.00
35435;BME280;21556;55.782;37.528;2023-02-19T05:06:24;98029.28;;;-6.16;100.00
35435;BME280;21556;55.782;37.528;2023-02-19T05:08:50;98030.53;;;-6.24;100.00
35435;BME280;21556;55.782;37.528;2023-02-19T05:11:16;98025.91;;;-6.15;100.00
35435;BME280;21556;55.782;37.528;2023-02-19T05:13:42;98024.50;;;-6.10;100.00
35435;BME280;21556;55.782;37.528;2023-02-19T05:16:13;98025.13;;;-5.81;100.00
35435;BME280;21556;55.782;37.528;2023-02-19T05:18:42;98013.84;;;-5.70;100.00
35435;BME280;21556;55.782;37.528;2023-02-19T05:21:09;98019.66;;;-6.05;100.00
35435;BME280;21556;55.782;37.528;2023-02-19T05:23:35;98021.56;;;-6.32;100.00
35435;BME280;21556;55.782;37.528;2023-02-19T05:26:05;98019.53;;;-6.23;100.00
35435;BME280;21556;55.782;37.528;2023-02-19T05:28:32;98011.88;;;-6.07;100.00
35435;BME280;21556;55.782;37.528;2023-02-19T05:31:06;98009.34;;;-5.90;100.00
35435;BME280;21556;55.782;37.528;2023-02-19T05:33:34;98008.63;;;-5.88;100.00
35435;BME280;21556;55.782;37.528;2023-02-19T05:36:05;98006.41;;;-5.98;100.00
35435;BME280;21556;55.782;37.528;2023-02-19T05:38:31;97996.34;;;-5.78;100.00
35435;BME280;21556;55.782;37.528;2023-02-19T05:41:13;98000.00;;;-5.90;100.00
35435;BME280;21556;55.782;37.528;2023-02-19T05:43:40;98010.97;;;-5.92;100.00
35435;BME280;21556;55.782;37.528;2023-02-19T05:46:11;98002.00;;;-5.68;100.00
35435;BME280;21556;55.782;37.528;2023-02-19T05:48:37;98008.84;;;-6.16;100.00
35435;BME280;21556;55.782;37.528;2023-02-19T05:51:09;98002.19;;;-5.97;100.00
35435;BME280;21556;55.782;37.528;2023-02-19T05:53:36;98000.59;;;-5.95;100.00
35435;BME280;21556;55.782;37.528;2023-02-19T05:56:02;98005.63;;;-5.81;100.00
35435;BME280;21556;55.782;37.528;2023-02-19T05:58:28;98005.78;;;-5.94;100.00
35435;BME280;21556;55.782;37.528;2023-02-19T06:00:55;98006.41;;;-6.29;100.00
35435;BME280;21556;55.782;37.528;2023-02-19T06:03:21;97994.38;;;-6.32;100.00
35435;BME280;21556;55.782;37.528;2023-02-19T06:05:47;97997.44;;;-5.90;100.00
35435;BME280;21556;55.782;37.528;2023-02-19T06:08:14;97999.13;;;-6.07;100.00
35435;BME280;21556;55.782;37.528;2023-02-19T06:10:41;97999.81;;;-5.94;100.00
35435;BME280;21556;55.782;37.528;2023-02-19T06:13:08;97999.84;;;-6.09;100.00
35435;BME280;21556;55.782;37.528;2023-02-19T06:15:35;98013.41;;;-6.41;100.00
35435;BME280;21556;55.782;37.528;2023-02-19T06:18:02;98008.78;;;-5.85;100.00
35435;BME280;21556;55.782;37.528;2023-02-19T06:20:28;98009.44;;;-6.05;100.00
35435;BME280;21556;55.782;37.528;2023-02-19T06:22:54;97999.28;;;-6.20;100.00
35435;BME280;21556;55.782;37.528;2023-02-19T06:25:20;98002.41;;;-6.09;100.00
35435;BME280;21556;55.782;37.528;2023-02-19T06:27:46;97994.59;;;-6.12;100.00
35435;BME280;21556;55.782;37.528;2023-02-19T06:30:12;98000.69;;;-6.25;100.00
35435;BME280;21556;55.782;37.528;2023-02-19T06:32:38;97999.34;;;-6.18;100.00
35435;BME280;21556;55.782;37.528;2023-02-19T06:35:05;97991.63;;;-6.03;100.00
35435;BME280;21556;55.782;37.528;2023-02-19T06:37:31;98003.03;;;-6.13;100.00
35435;BME280;21556;55.782;37.528;2023-02-19T06:39:58;97993.72;;;-6.13;100.00
35435;BME280;21556;55.782;37.528;2023-02-19T06:42:23;97998.34;;;-6.06;100.00
35435;BME280;21556;55.782;37.528;2023-02-19T06:44:49;97992.31;;;-6.22;100.00
35435;BME280;21556;55.782;37.528;2023-02-19T06:47:15;97991.47;;;-6.07;100.00
35435;BME280;21556;55.782;37.528;2023-02-19T06:49:41;97982.44;;;-6.16;100.00
35435;BME280;21556;55.782;37.528;2023-02-19T06:52:07;97985.25;;;-6.12;100.00
35435;BME280;21556;55.782;37.528;2023-02-19T06:54:33;97980.59;;;-5.86;100.00
35435;BME280;21556;55.782;37.528;2023-02-19T06:56:59;97986.22;;;-6.10;100.00
35435;BME280;21556;55.782;37.528;2023-02-19T06:59:25;97967.59;;;-5.91;100.00
35435;BME280;21556;55.782;37.528;2023-02-19T07:01:51;97978.41;;;-5.96;100.00
35435;BME280;21556;55.782;37.528;2023-02-19T07:04:18;97976.25;;;-6.05;100.00
35435;BME280;21556;55.782;37.528;2023-02-19T07:06:44;97968.75;;;-6.02;100.00
35435;BME280;21556;55.782;37.528;2023-02-19T07:09:12;97964.69;;;-5.98;100.00
35435;BME280;21556;55.782;37.528;2023-02-19T07:11:38;97960.88;;;-5.89;100.00
35435;BME280;21556;55.782;37.528;2023-02-19T07:14:07;97969.69;;;-6.00;100.00
35435;BME280;21556;55.782;37.528;2023-02-19T07:16:33;97961.00;;;-5.87;100.00
35435;BME280;21556;55.782;37.528;2023-02-19T07:18:59;97959.56;;;-5.66;100.00
35435;BME280;21556;55.782;37.528;2023-02-19T07:21:26;97964.25;;;-5.90;100.00
35435;BME280;21556;55.782;37.528;2023-02-19T07:23:53;97953.31;;;-5.87;100.00
35435;BME280;21556;55.782;37.528;2023-02-19T07:26:20;97955.66;;;-6.08;100.00
35435;BME280;21556;55.782;37.528;2023-02-19T07:28:50;97948.38;;;-6.00;100.00
35435;BME280;21556;55.782;37.528;2023-02-19T07:31:18;97943.25;;;-5.68;100.00
35435;BME280;21556;55.782;37.528;2023-02-19T07:33:45;97947.34;;;-6.20;100.00
35435;BME280;21556;55.782;37.528;2023-02-19T07:36:12;97939.94;;;-6.16;100.00
35435;BME280;21556;55.782;37.528;2023-02-19T07:38:39;97936.59;;;-5.98;100.00
35435;BME280;21556;55.782;37.528;2023-02-19T07:41:05;97932.00;;;-5.71;100.00
35435;BME280;21556;55.782;37.528;2023-02-19T07:43:33;97942.19;;;-6.06;100.00
35435;BME280;21556;55.782;37.528;2023-02-19T07:46:11;97933.47;;;-5.93;100.00
35435;BME280;21556;55.782;37.528;2023-02-19T07:48:37;97947.97;;;-5.75;100.00
35435;BME280;21556;55.782;37.528;2023-02-19T07:51:06;97937.84;;;-5.90;100.00
35435;BME280;21556;55.782;37.528;2023-02-19T07:53:33;97926.91;;;-5.88;100.00
35435;BME280;21556;55.782;37.528;2023-02-19T07:56:01;97930.63;;;-5.81;100.00
35435;BME280;21556;55.782;37.528;2023-02-19T07:58:28;97935.97;;;-5.94;100.00
35435;BME280;21556;55.782;37.528;2023-02-19T08:00:56;97920.84;;;-5.73;100.00
35435;BME280;21556;55.782;37.528;2023-02-19T08:03:22;97913.06;;;-5.59;100.00
35435;BME280;21556;55.782;37.528;2023-02-19T08:05:48;97919.53;;;-5.82;100.00
35435;BME280;21556;55.782;37.528;2023-02-19T08:08:17;97919.47;;;-5.83;100.00
35435;BME280;21556;55.782;37.528;2023-02-19T08:10:44;97918.66;;;-5.82;100.00
35435;BME280;21556;55.782;37.528;2023-02-19T08:13:30;97915.25;;;-5.83;100.00
35435;BME280;21556;55.782;37.528;2023-02-19T08:18:31;97918.09;;;-5.60;100.00
35435;BME280;21556;55.782;37.528;2023-02-19T08:20:59;97915.19;;;-5.84;100.00
35435;BME280;21556;55.782;37.528;2023-02-19T08:23:26;97907.34;;;-5.87;100.00
35435;BME280;21556;55.782;37.528;2023-02-19T08:25:56;97910.16;;;-5.48;100.00
35435;BME280;21556;55.782;37.528;2023-02-19T08:28:22;97919.25;;;-5.88;100.00
35435;BME280;21556;55.782;37.528;2023-02-19T08:30:48;97911.78;;;-5.67;100.00
35435;BME280;21556;55.782;37.528;2023-02-19T08:33:18;97919.03;;;-5.92;100.00
35435;BME280;21556;55.782;37.528;2023-02-19T08:35:46;97899.19;;;-5.29;100.00
35435;BME280;21556;55.782;37.528;2023-02-19T08:38:14;97894.13;;;-5.46;100.00
35435;BME280;21556;55.782;37.528;2023-02-19T08:40:42;97889.69;;;-5.32;100.00
35435;BME280;21556;55.782;37.528;2023-02-19T08:43:13;97909.16;;;-5.68;100.00
35435;BME280;21556;55.782;37.528;2023-02-19T08:45:41;97907.72;;;-5.63;100.00
35435;BME280;21556;55.782;37.528;2023-02-19T08:48:08;97900.84;;;-5.64;100.00
35435;BME280;21556;55.782;37.528;2023-02-19T08:50:35;97886.03;;;-5.37;100.00
35435;BME280;21556;55.782;37.528;2023-02-19T08:53:04;97900.25;;;-5.42;100.00
35435;BME280;21556;55.782;37.528;2023-02-19T08:55:31;97886.16;;;-5.34;100.00
35435;BME280;21556;55.782;37.528;2023-02-19T08:57:57;97881.53;;;-5.25;100.00
35435;BME280;21556;55.782;37.528;2023-02-19T09:00:24;97880.88;;;-5.03;100.00
35435;BME280;21556;55.782;37.528;2023-02-19T09:02:51;97879.56;;;-5.13;100.00
35435;BME280;21556;55.782;37.528;2023-02-19T09:05:17;97884.63;;;-5.30;100.00
35435;BME280;21556;55.782;37.528;2023-02-19T09:07:43;97870.66;;;-5.55;100.00
35435;BME280;21556;55.782;37.528;2023-02-19T09:10:11;97869.25;;;-5.32;100.00
35435;BME280;21556;55.782;37.528;2023-02-19T09:12:37;97882.41;;;-5.06;100.00
35435;BME280;21556;55.782;37.528;2023-02-19T09:15:07;97872.09;;;-5.26;100.00
35435;BME280;21556;55.782;37.528;2023-02-19T09:17:37;97874.56;;;-5.27;100.00
35435;BME280;21556;55.782;37.528;2023-02-19T09:20:04;97872.19;;;-5.06;100.00
35435;BME280;21556;55.782;37.528;2023-02-19T09:22:30;97876.28;;;-5.10;100.00
35435;BME280;21556;55.782;37.528;2023-02-19T09:24:55;97871.00;;;-5.31;100.00
35435;BME280;21556;55.782;37.528;2023-02-19T09:27:21;97880.53;;;-5.45;100.00
35435;BME280;21556;55.782;37.528;2023-02-19T09:29:49;97864.78;;;-5.36;100.00
35435;BME280;21556;55.782;37.528;2023-02-19T09:32:14;97867.34;;;-5.36;100.00
35435;BME280;21556;55.782;37.528;2023-02-19T09:34:42;97866.22;;;-5.41;100.00
35435;BME280;21556;55.782;37.528;2023-02-19T09:37:08;97861.38;;;-5.53;100.00
35435;BME280;21556;55.782;37.528;2023-02-19T09:39:35;97848.22;;;-5.61;100.00
35435;BME280;21556;55.782;37.528;2023-02-19T09:42:19;97852.13;;;-5.51;100.00
35435;BME280;21556;55.782;37.528;2023-02-19T09:44:50;97845.41;;;-5.49;100.00
35435;BME280;21556;55.782;37.528;2023-02-19T09:47:20;97849.94;;;-5.43;100.00
35435;BME280;21556;55.782;37.528;2023-02-19T09:49:52;97854.06;;;-5.29;100.00
35435;BME280;21556;55.782;37.528;2023-02-19T09:52:41;97841.84;;;-5.35;100.00
35435;BME280;21556;55.782;37.528;2023-02-19T09:55:40;97841.19;;;-5.30;100.00
35435;BME280;21556;55.782;37.528;2023-02-19T09:58:39;97837.75;;;-5.31;100.00
35435;BME280;21556;55.782;37.528;2023-02-19T10:01:10;97834.53;;;-5.45;100.00
35435;BME280;21556;55.782;37.528;2023-02-19T10:03:45;97851.81;;;-5.57;100.00
35435;BME280;21556;55.782;37.528;2023-02-19T10:06:26;97851.56;;;-5.79;100.00
35435;BME280;21556;55.782;37.528;2023-02-19T10:09:21;97857.09;;;-5.88;100.00
35435;BME280;21556;55.782;37.528;2023-02-19T10:11:48;97836.06;;;-5.66;100.00
35435;BME280;21556;55.782;37.528;2023-02-19T10:14:20;97830.44;;;-5.59;100.00
35435;BME280;21556;55.782;37.528;2023-02-19T10:16:48;97831.47;;;-5.38;100.00
35435;BME280;21556;55.782;37.528;2023-02-19T10:19:15;97833.66;;;-5.45;100.00
35435;BME280;21556;55.782;37.528;2023-02-19T10:21:41;97836.81;;;-5.67;100.00
35435;BME280;21556;55.782;37.528;2023-02-19T10:24:15;97833.91;;;-5.41;100.00
35435;BME280;21556;55.782;37.528;2023-02-19T10:26:44;97840.47;;;-5.28;100.00
35435;BME280;21556;55.782;37.528;2023-02-19T10:29:10;97831.41;;;-5.21;100.00
35435;BME280;21556;55.782;37.528;2023-02-19T10:31:45;97836.97;;;-5.48;100.00
35435;BME280;21556;55.782;37.528;2023-02-19T10:34:19;97831.34;;;-5.23;100.00
35435;BME280;21556;55.782;37.528;2023-02-19T10:36:48;97830.97;;;-5.13;100.00
35435;BME280;21556;55.782;37.528;2023-02-19T10:41:50;97828.66;;;-4.90;100.00
35435;BME280;21556;55.782;37.528;2023-02-19T10:44:27;97831.59;;;-4.81;100.00
35435;BME280;21556;55.782;37.528;2023-02-19T10:46:58;97823.78;;;-4.84;100.00
35435;BME280;21556;55.782;37.528;2023-02-19T10:49:37;97824.69;;;-5.01;100.00
35435;BME280;21556;55.782;37.528;2023-02-19T10:52:23;97824.75;;;-4.82;100.00
35435;BME280;21556;55.782;37.528;2023-02-19T10:54:54;97828.72;;;-4.69;100.00
35435;BME280;21556;55.782;37.528;2023-02-19T10:57:28;97823.59;;;-5.24;100.00
35435;BME280;21556;55.782;37.528;2023-02-19T10:59:57;97814.97;;;-5.09;100.00
35435;BME280;21556;55.782;37.528;2023-02-19T11:02:23;97813.38;;;-4.69;100.00
35435;BME280;21556;55.782;37.528;2023-02-19T11:07:42;97817.47;;;-4.73;100.00
35435;BME280;21556;55.782;37.528;2023-02-19T11:10:19;97817.84;;;-4.83;100.00
35435;BME280;21556;55.782;37.528;2023-02-19T11:12:48;97807.59;;;-4.65;100.00
35435;BME280;21556;55.782;37.528;2023-02-19T11:15:21;97805.78;;;-4.68;100.00
35435;BME280;21556;55.782;37.528;2023-02-19T11:17:58;97800.81;;;-4.45;100.00
35435;BME280;21556;55.782;37.528;2023-02-19T11:20:24;97801.69;;;-4.45;100.00
35435;BME280;21556;55.782;37.528;2023-02-19T11:23:00;97795.97;;;-4.20;100.00
35435;BME280;21556;55.782;37.528;2023-02-19T11:25:30;97808.75;;;-4.00;100.00
35435;BME280;21556;55.782;37.528;2023-02-19T11:28:05;97802.91;;;-4.37;100.00
35435;BME280;21556;55.782;37.528;2023-02-19T11:35:47;97805.34;;;-4.20;100.00
35435;BME280;21556;55.782;37.528;2023-02-19T11:38:15;97804.53;;;-4.19;100.00
35435;BME280;21556;55.782;37.528;2023-02-19T11:40:51;97797.97;;;-4.51;100.00
35435;BME280;21556;55.782;37.528;2023-02-19T11:45:57;97794.31;;;-4.39;100.00
35435;BME280;21556;55.782;37.528;2023-02-19T11:48:43;97794.75;;;-4.67;100.00
35435;BME280;21556;55.782;37.528;2023-02-19T11:54:23;97801.16;;;-4.57;100.00
35435;BME280;21556;55.782;37.528;2023-02-19T12:00:01;97802.38;;;-4.68;100.00
35435;BME280;21556;55.782;37.528;2023-02-19T12:11:50;97796.66;;;-4.80;100.00
35435;BME280;21556;55.782;37.528;2023-02-19T12:14:49;97799.19;;;-4.63;100.00
35435;BME280;21556;55.782;37.528;2023-02-19T12:25:39;97794.56;;;-4.52;100.00
35435;BME280;21556;55.782;37.528;2023-02-19T12:28:24;97791.38;;;-4.66;100.00
35435;BME280;21556;55.782;37.528;2023-02-19T12:42:30;97802.75;;;-4.59;100.00
35435;BME280;21556;55.782;37.528;2023-02-19T12:45:30;97799.84;;;-4.86;100.00
35435;BME280;21556;55.782;37.528;2023-02-19T12:50:44;97795.16;;;-4.95;100.00
35435;BME280;21556;55.782;37.528;2023-02-19T12:55:47;97802.50;;;-4.83;100.00
35435;BME280;21556;55.782;37.528;2023-02-19T12:58:23;97796.16;;;-4.91;100.00
35435;BME280;21556;55.782;37.528;2023-02-19T13:00:53;97799.41;;;-5.13;100.00
35435;BME280;21556;55.782;37.528;2023-02-19T13:03:40;97811.84;;;-5.21;100.00
35435;BME280;21556;55.782;37.528;2023-02-19T13:06:13;97801.81;;;-5.34;100.00
35435;BME280;21556;55.782;37.528;2023-02-19T13:08:50;97802.63;;;-4.99;100.00
35435;BME280;21556;55.782;37.528;2023-02-19T13:11:34;97800.06;;;-4.99;100.00
35435;BME280;21556;55.782;37.528;2023-02-19T13:14:53;97810.22;;;-5.01;100.00
35435;BME280;21556;55.782;37.528;2023-02-19T13:17:05;97804.88;;;-4.88;100.00
35435;BME280;21556;55.782;37.528;2023-02-19T13:19:36;97800.63;;;-4.87;100.00
35435;BME280;21556;55.782;37.528;2023-02-19T13:22:17;97797.50;;;-4.99;100.00
35435;BME280;21556;55.782;37.528;2023-02-19T13:25:04;97803.66;;;-4.76;100.00
35435;BME280;21556;55.782;37.528;2023-02-19T13:28:00;97797.63;;;-4.78;100.00
35435;BME280;21556;55.782;37.528;2023-02-19T13:33:21;97800.63;;;-4.87;100.00
35435;BME280;21556;55.782;37.528;2023-02-19T13:36:09;97799.53;;;-4.92;100.00
35435;BME280;21556;55.782;37.528;2023-02-19T13:38:42;97806.66;;;-5.04;100.00
35435;BME280;21556;55.782;37.528;2023-02-19T13:41:26;97796.84;;;-5.13;100.00
35435;BME280;21556;55.782;37.528;2023-02-19T13:43:55;97799.84;;;-5.04;100.00
35435;BME280;21556;55.782;37.528;2023-02-19T13:46:22;97798.72;;;-4.91;100.00
35435;BME280;21556;55.782;37.528;2023-02-19T13:51:51;97806.03;;;-4.81;100.00
35435;BME280;21556;55.782;37.528;2023-02-19T13:59:49;97800.94;;;-4.99;100.00
35435;BME280;21556;55.782;37.528;2023-02-19T14:04:51;97792.59;;;-4.95;100.00
35435;BME280;21556;55.782;37.528;2023-02-19T14:09:43;97776.75;;;-5.05;100.00
35435;BME280;21556;55.782;37.528;2023-02-19T14:14:48;97783.63;;;-5.04;100.00
35435;BME280;21556;55.782;37.528;2023-02-19T14:17:37;97793.72;;;-5.43;100.00
35435;BME280;21556;55.782;37.528;2023-02-19T14:28:03;97784.44;;;-5.23;100.00
35435;BME280;21556;55.782;37.528;2023-02-19T14:30:32;97776.03;;;-5.21;100.00
35435;BME280;21556;55.782;37.528;2023-02-19T14:33:02;97779.16;;;-5.09;100.00
35435;BME280;21556;55.782;37.528;2023-02-19T14:35:34;97765.97;;;-5.18;100.00
35435;BME280;21556;55.782;37.528;2023-02-19T14:38:02;97775.50;;;-4.96;100.00
35435;BME280;21556;55.782;37.528;2023-02-19T14:40:34;97786.19;;;-5.04;100.00
35435;BME280;21556;55.782;37.528;2023-02-19T14:43:04;97771.75;;;-5.22;100.00
35435;BME280;21556;55.782;37.528;2023-02-19T14:48:22;97761.41;;;-5.23;100.00
35435;BME280;21556;55.782;37.528;2023-02-19T14:50:55;97771.28;;;-5.13;100.00
35435;BME280;21556;55.782;37.528;2023-02-19T14:53:23;97754.50;;;-5.26;100.00
35435;BME280;21556;55.782;37.528;2023-02-19T14:55:51;97764.78;;;-5.06;100.00
35435;BME280;21556;55.782;37.528;2023-02-19T14:58:23;97767.56;;;-5.20;100.00